createdAt,value
2018-05-11T00:01:42.375Z,75.62
2018-05-11T00:02:41.961Z,76.10
2018-05-11T00:04:35.707Z,76.39
2018-05-11T00:05:35.726Z,76.29
2018-05-11T00:07:29.108Z,75.52
2018-05-11T00:08:29.333Z,75.81
2018-05-11T00:10:37.127Z,76.20
2018-05-11T00:11:36.978Z,76.39
2018-05-11T00:13:30.985Z,75.62
2018-05-11T00:14:30.368Z,75.52
2018-05-11T00:16:23.831Z,75.91
2018-05-11T00:17:23.799Z,75.62
2018-05-11T00:19:17.089Z,75.91
2018-05-11T00:20:17.116Z,75.52
2018-05-11T00:22:10.504Z,75.91
2018-05-11T00:23:10.535Z,75.81
2018-05-11T00:25:03.900Z,75.71
2018-05-11T00:26:03.853Z,75.62
2018-05-11T00:27:57.281Z,75.81
2018-05-11T00:28:57.288Z,76.39
2018-05-11T00:30:51.190Z,75.91
2018-05-11T00:31:50.650Z,75.71
2018-05-11T00:33:44.583Z,76.10
2018-05-11T00:34:44.032Z,76.57
2018-05-11T00:36:37.847Z,76.20
2018-05-11T00:37:37.011Z,76.29
2018-05-11T00:39:30.772Z,76.57
2018-05-11T00:40:30.400Z,76.29
2018-05-11T00:42:24.147Z,76.57
2018-05-11T00:43:24.125Z,76.57
2018-05-11T00:45:17.518Z,76.29
2018-05-11T00:46:17.117Z,76.20
2018-05-11T00:48:11.369Z,76.20
2018-05-11T00:49:10.433Z,76.86
2018-05-11T00:51:04.238Z,76.77
2018-05-11T00:52:03.773Z,76.96
2018-05-11T00:53:57.629Z,76.29
2018-05-11T00:54:57.172Z,76.86
2018-05-11T00:56:50.915Z,76.96
2018-05-11T00:57:50.965Z,77.44
2018-05-11T00:59:44.321Z,77.69
2018-05-11T01:00:44.323Z,77.78
2018-05-11T01:02:37.659Z,78.36
2018-05-11T01:03:37.300Z,78.16
2018-05-11T01:05:31.003Z,78.93
2018-05-11T01:06:31.035Z,78.93
2018-05-11T01:08:24.419Z,78.74
2018-05-11T01:09:24.382Z,78.55
2018-05-11T01:11:17.724Z,79.22
2018-05-11T01:12:17.337Z,78.83
2018-05-11T01:14:13.653Z,79.31
2018-05-11T01:15:13.582Z,79.69
2018-05-11T01:17:06.966Z,80.46
2018-05-11T01:18:06.517Z,80.07
2018-05-11T01:20:00.444Z,80.55
2018-05-11T01:21:00.351Z,80.74
2018-05-11T01:22:53.716Z,80.41
2018-05-11T01:23:53.327Z,80.41
2018-05-11T01:25:47.608Z,80.61
2018-05-11T01:26:46.693Z,81.18
2018-05-11T01:28:41.099Z,80.99
2018-05-11T01:29:40.932Z,81.47
2018-05-11T01:31:33.825Z,81.85
2018-05-11T01:32:33.777Z,81.95
2018-05-11T01:34:27.636Z,82.32
2018-05-11T01:35:27.307Z,82.23
2018-05-11T01:37:20.551Z,83.09
2018-05-11T01:38:20.185Z,82.86
2018-05-11T01:40:13.432Z,83.62
2018-05-11T01:41:14.422Z,83.43
2018-05-11T01:43:06.888Z,83.53
2018-05-11T01:44:06.445Z,83.53
2018-05-11T01:46:00.722Z,83.43
2018-05-11T01:46:59.799Z,83.62
2018-05-11T01:48:53.605Z,84.29
2018-05-11T01:49:53.219Z,84.10
2018-05-11T01:51:46.963Z,84.48
2018-05-11T01:52:46.967Z,84.39
2018-05-11T01:54:39.744Z,84.77
2018-05-11T01:55:39.825Z,84.48
2018-05-11T01:57:33.204Z,84.58
2018-05-11T01:58:32.754Z,84.77
2018-05-11T02:00:26.554Z,84.67
2018-05-11T02:01:26.448Z,84.58
2018-05-11T02:03:19.930Z,84.29
2018-05-11T02:04:20.380Z,84.39
2018-05-11T02:06:32.853Z,84.67
2018-05-11T02:07:33.701Z,84.86
2018-05-11T02:09:25.478Z,85.05
2018-05-11T02:10:24.983Z,85.25
2018-05-11T02:12:18.814Z,85.63
2018-05-11T02:13:18.619Z,85.53
2018-05-11T02:15:12.257Z,85.34
2018-05-11T02:16:12.778Z,85.44
2018-05-11T02:18:05.574Z,85.91
2018-05-11T02:20:19.559Z,85.87
2018-05-11T02:21:18.591Z,86.35
2018-05-11T02:23:12.256Z,86.25
2018-05-11T02:24:12.175Z,86.82
2018-05-11T02:26:05.615Z,86.73
2018-05-11T02:27:06.175Z,86.82
2018-05-11T02:28:58.963Z,87.21
2018-05-11T02:29:58.980Z,87.11
2018-05-11T02:31:52.300Z,87.30
2018-05-11T02:32:51.958Z,87.11
2018-05-11T02:34:45.687Z,87.97
2018-05-11T02:35:46.041Z,87.97
2018-05-11T02:37:40.576Z,87.59
2018-05-11T02:38:40.241Z,88.64
2018-05-11T02:40:33.355Z,88.40
2018-05-11T02:41:33.454Z,89.07
2018-05-11T02:43:26.718Z,89.07
2018-05-11T02:44:26.352Z,89.74
2018-05-11T02:46:20.122Z,89.26
2018-05-11T02:47:19.767Z,89.45
2018-05-11T02:49:14.404Z,89.74
2018-05-11T02:50:14.513Z,88.88
2018-05-11T02:52:12.358Z,89.93
2018-05-11T02:53:12.349Z,89.54
2018-05-11T02:55:05.679Z,89.64
2018-05-11T02:56:05.301Z,89.26
2018-05-11T02:57:59.227Z,90.31
2018-05-11T02:58:58.685Z,89.93
2018-05-11T03:00:56.972Z,90.31
2018-05-11T03:01:56.918Z,90.22
2018-05-11T03:03:49.804Z,90.22
2018-05-11T03:04:49.445Z,90.88
2018-05-11T03:06:43.176Z,91.07
2018-05-11T03:07:42.794Z,90.69
2018-05-11T03:09:36.579Z,90.98
2018-05-11T03:10:36.227Z,90.50
2018-05-11T03:12:29.906Z,91.27
2018-05-11T03:13:29.505Z,91.41
2018-05-11T03:15:38.000Z,90.93
2018-05-11T03:16:37.597Z,91.22
2018-05-11T03:18:31.426Z,91.41
2018-05-11T03:19:31.283Z,91.13
2018-05-11T03:21:24.623Z,91.13
2018-05-11T03:22:24.250Z,91.69
2018-05-11T03:24:18.034Z,91.88
2018-05-11T03:25:17.645Z,91.31
2018-05-11T03:27:13.096Z,91.60
2018-05-11T03:28:12.531Z,91.22
2018-05-11T03:30:05.701Z,91.60
2018-05-11T03:31:05.321Z,91.69
2018-05-11T03:32:59.134Z,92.27
2018-05-11T03:33:58.688Z,92.36
2018-05-11T03:35:52.478Z,92.65
2018-05-11T03:36:52.049Z,92.55
2018-05-11T03:38:45.803Z,92.36
2018-05-11T03:39:45.418Z,92.46
2018-05-11T03:41:39.682Z,91.98
2018-05-11T03:42:38.775Z,92.08
2018-05-11T03:44:32.565Z,91.98
2018-05-11T03:45:32.132Z,92.36
2018-05-11T03:47:26.451Z,92.36
2018-05-11T03:48:25.955Z,92.36
2018-05-11T03:50:19.335Z,92.93
2018-05-11T03:51:18.962Z,93.03
2018-05-11T03:53:12.661Z,92.84
2018-05-11T03:54:12.237Z,92.55
2018-05-11T03:56:05.976Z,92.65
2018-05-11T03:57:05.560Z,92.27
2018-05-11T03:59:26.140Z,92.36
2018-05-11T04:00:26.462Z,92.55
2018-05-11T04:02:19.790Z,92.46
2018-05-11T04:03:19.409Z,92.55
2018-05-11T04:05:13.220Z,92.46
2018-05-11T04:06:12.752Z,92.46
2018-05-11T04:08:06.472Z,93.03
2018-05-11T04:09:06.717Z,93.03
2018-05-11T04:10:59.753Z,93.51
2018-05-11T04:11:59.536Z,93.03
2018-05-11T04:13:55.463Z,93.12
2018-05-11T04:14:55.400Z,93.51
2018-05-11T04:16:49.016Z,92.65
2018-05-11T04:17:48.769Z,92.46
2018-05-11T04:19:42.379Z,92.65
2018-05-11T04:20:42.200Z,92.55
2018-05-11T04:22:35.761Z,92.27
2018-05-11T04:23:35.500Z,92.27
2018-05-11T04:25:29.276Z,92.08
2018-05-11T04:26:29.139Z,92.36
2018-05-11T04:28:49.146Z,91.74
2018-05-11T04:29:48.777Z,91.55
2018-05-11T04:31:42.426Z,91.74
2018-05-11T04:32:41.712Z,91.74
2018-05-11T04:34:35.218Z,91.07
2018-05-11T04:35:34.986Z,91.36
2018-05-11T04:37:28.865Z,91.27
2018-05-11T04:38:28.781Z,90.88
2018-05-11T04:40:22.149Z,90.50
2018-05-11T04:41:22.131Z,90.59
2018-05-11T04:43:15.520Z,90.69
2018-05-11T04:44:15.520Z,90.50
2018-05-11T04:46:09.494Z,90.31
2018-05-11T04:47:08.639Z,90.12
2018-05-11T04:49:01.817Z,90.12
2018-05-11T04:50:01.787Z,89.93
2018-05-11T04:51:54.842Z,89.31
2018-05-11T04:52:54.658Z,89.59
2018-05-11T04:54:48.041Z,89.21
2018-05-11T04:55:48.017Z,89.31
2018-05-11T04:57:41.138Z,89.02
2018-05-11T04:58:42.597Z,89.31
2018-05-11T05:00:34.211Z,89.50
2018-05-11T05:01:36.335Z,88.54
2018-05-11T05:03:27.465Z,88.64
2018-05-11T05:04:27.528Z,88.16
2018-05-11T05:06:25.327Z,87.92
2018-05-11T05:07:25.029Z,87.82
2018-05-11T05:09:17.914Z,87.06
2018-05-11T05:10:17.868Z,86.49
2018-05-11T05:12:11.228Z,85.53
2018-05-11T05:13:11.466Z,85.96
2018-05-11T05:15:04.795Z,85.29
2018-05-11T05:16:04.092Z,84.33
2018-05-11T05:17:58.835Z,83.61
2018-05-11T05:18:57.496Z,82.56
2018-05-11T05:20:50.857Z,80.88
2018-05-11T05:21:50.535Z,80.40
2018-05-11T05:23:44.204Z,80.11
2018-05-11T05:24:44.083Z,79.68
2018-05-11T05:26:37.562Z,79.29
2018-05-11T05:27:37.761Z,78.43
2018-05-11T05:29:30.116Z,76.94
2018-05-11T05:30:30.007Z,76.94
2018-05-11T05:32:23.846Z,76.50
2018-05-11T05:33:23.583Z,75.83
2018-05-11T05:35:17.021Z,73.95
2018-05-11T05:36:16.704Z,72.80
2018-05-11T05:38:10.905Z,72.94
2018-05-11T05:39:10.026Z,71.69
2018-05-11T05:41:03.775Z,70.67
2018-05-11T05:42:03.446Z,69.65
2018-05-11T05:43:56.695Z,69.36
2018-05-11T05:44:56.646Z,68.95
2018-05-11T05:46:49.964Z,69.52
2018-05-11T05:47:49.643Z,70.73
2018-05-11T05:49:45.569Z,70.35
2018-05-11T05:50:44.904Z,70.83
2018-05-11T05:52:36.871Z,71.69
2018-05-11T05:53:36.694Z,71.56
2018-05-11T05:55:29.961Z,71.37
2018-05-11T05:56:30.570Z,71.27
2018-05-11T05:58:23.643Z,71.46
2018-05-11T05:59:24.140Z,71.84
2018-05-11T06:01:17.185Z,72.52
2018-05-11T06:02:16.258Z,72.90
2018-05-11T06:04:10.724Z,73.38
2018-05-11T06:05:10.554Z,73.47
2018-05-11T06:07:03.414Z,73.63
2018-05-11T06:08:03.017Z,72.48
2018-05-11T06:09:57.787Z,72.58
2018-05-11T06:10:56.902Z,73.15
2018-05-11T06:12:50.681Z,73.72
2018-05-11T06:13:49.938Z,73.91
2018-05-11T06:15:44.183Z,73.91
2018-05-11T06:16:43.212Z,74.01
2018-05-11T06:18:37.019Z,73.63
2018-05-11T06:19:37.455Z,72.86
2018-05-11T06:21:30.884Z,73.54
2018-05-11T06:22:29.984Z,73.34
2018-05-11T06:24:24.694Z,73.72
2018-05-11T06:25:23.664Z,73.05
2018-05-11T06:27:17.120Z,72.86
2018-05-11T06:28:16.795Z,73.54
2018-05-11T06:30:10.501Z,73.82
2018-05-11T06:31:13.138Z,73.82
2018-05-11T06:33:04.697Z,74.20
2018-05-11T06:34:03.694Z,74.68
2018-05-11T06:35:57.667Z,74.87
2018-05-11T06:36:58.535Z,74.30
2018-05-11T06:38:51.457Z,74.30
2018-05-11T06:39:50.979Z,73.91
2018-05-11T06:41:44.703Z,73.44
2018-05-11T06:42:44.560Z,73.54
2018-05-11T06:44:37.665Z,73.72
2018-05-11T06:45:37.729Z,72.77
2018-05-11T06:47:32.167Z,73.44
2018-05-11T06:48:30.754Z,73.24
2018-05-11T06:50:24.962Z,73.82
2018-05-11T06:51:25.445Z,73.57
2018-05-11T06:53:18.485Z,72.61
2018-05-11T06:54:18.407Z,72.90
2018-05-11T06:56:11.920Z,72.61
2018-05-11T06:57:11.778Z,72.42
2018-05-11T06:59:05.718Z,72.71
2018-05-11T07:00:05.617Z,72.71
2018-05-11T07:01:58.583Z,73.57
2018-05-11T07:02:59.035Z,73.38
2018-05-11T07:04:51.906Z,73.57
2018-05-11T07:05:51.878Z,72.80
2018-05-11T07:07:45.660Z,72.52
2018-05-11T07:08:45.271Z,72.64
2018-05-11T07:10:39.730Z,72.07
2018-05-11T07:11:39.601Z,71.59
2018-05-11T07:13:32.637Z,71.50
2018-05-11T07:14:33.103Z,71.34
2018-05-11T07:16:27.067Z,70.09
2018-05-11T07:17:27.580Z,69.62
2018-05-11T07:19:20.657Z,68.59
2018-05-11T07:20:19.664Z,68.37
2018-05-11T07:22:13.992Z,68.46
2018-05-11T07:23:15.049Z,69.04
2018-05-11T07:25:08.346Z,69.46
2018-05-11T07:26:08.768Z,69.52
2018-05-11T07:28:01.694Z,68.98
2018-05-11T07:29:00.582Z,68.02
2018-05-11T07:30:53.998Z,67.63
2018-05-11T07:31:55.069Z,67.83
2018-05-11T07:33:47.982Z,67.76
2018-05-11T07:34:47.479Z,67.47
2018-05-11T07:36:41.457Z,67.76
2018-05-11T07:37:41.830Z,66.80
2018-05-11T07:39:35.208Z,66.42
2018-05-11T07:40:34.178Z,67.19
2018-05-11T07:42:27.525Z,67.19
2018-05-11T07:43:27.899Z,66.71
2018-05-11T07:46:12.607Z,65.97
2018-05-11T07:47:12.048Z,65.69
2018-05-11T07:49:06.087Z,65.49
2018-05-11T07:50:05.947Z,65.59
2018-05-11T07:51:59.858Z,65.59
2018-05-11T07:52:59.779Z,65.40
2018-05-11T07:55:44.678Z,65.49
2018-05-11T07:56:45.134Z,66.07
2018-05-11T07:58:37.975Z,67.22
2018-05-11T07:59:37.440Z,67.32
2018-05-11T08:01:30.924Z,65.11
2018-05-11T08:02:30.557Z,65.59
2018-05-11T08:04:24.312Z,65.59
2018-05-11T08:05:24.632Z,65.20
2018-05-11T08:07:17.992Z,65.30
2018-05-11T08:08:17.269Z,65.78
2018-05-11T08:10:11.085Z,63.89
2018-05-11T08:11:11.564Z,63.89
2018-05-11T08:13:04.789Z,63.06
2018-05-11T08:14:04.515Z,63.60
2018-05-11T08:15:58.569Z,64.18
2018-05-11T08:16:58.019Z,64.56
2018-05-11T08:18:52.028Z,63.79
2018-05-11T08:19:50.440Z,63.99
2018-05-11T08:21:43.930Z,64.47
2018-05-11T08:22:43.833Z,63.89
2018-05-11T08:24:38.349Z,63.35
2018-05-11T08:25:37.274Z,64.12
2018-05-11T08:27:31.632Z,63.92
2018-05-11T08:28:30.066Z,64.02
2018-05-11T08:30:25.983Z,62.58
2018-05-11T08:31:24.594Z,62.38
2018-05-11T08:33:18.046Z,63.02
2018-05-11T08:34:18.574Z,63.22
2018-05-11T08:36:11.875Z,62.87
2018-05-11T08:37:14.916Z,62.77
2018-05-11T08:39:05.775Z,61.91
2018-05-11T08:40:06.137Z,61.33
2018-05-11T08:41:58.193Z,61.91
2018-05-11T08:42:58.573Z,62.19
2018-05-11T08:44:52.100Z,61.81
2018-05-11T08:45:52.313Z,61.84
2018-05-11T08:47:45.179Z,62.99
2018-05-11T08:48:44.835Z,62.99
2018-05-11T08:50:39.014Z,62.61
2018-05-11T08:51:38.547Z,61.84
2018-05-11T08:53:31.375Z,61.74
2018-05-11T08:54:30.963Z,62.41
2018-05-11T08:56:27.332Z,61.26
2018-05-11T08:57:26.073Z,61.14
2018-05-11T08:59:20.654Z,62.96
2018-05-11T09:00:21.124Z,63.06
2018-05-11T09:02:14.952Z,62.96
2018-05-11T09:03:14.141Z,62.58
2018-05-11T09:05:07.672Z,63.54
2018-05-11T09:06:06.714Z,63.64
2018-05-11T09:08:01.043Z,62.58
2018-05-11T09:09:00.552Z,63.45
2018-05-11T09:10:54.511Z,64.02
2018-05-11T09:11:54.509Z,63.35
2018-05-11T09:13:50.223Z,63.35
2018-05-11T09:16:41.243Z,62.99
2018-05-11T09:17:40.413Z,62.90
2018-05-11T09:19:35.198Z,63.28
2018-05-11T09:20:34.138Z,62.23
2018-05-11T09:22:29.417Z,62.03
2018-05-11T09:23:27.605Z,61.36
2018-05-11T09:25:22.131Z,61.94
2018-05-11T09:26:21.288Z,62.00
2018-05-11T09:28:15.190Z,63.25
2018-05-11T09:29:14.163Z,62.96
2018-05-11T09:31:09.780Z,63.45
2018-05-11T09:32:08.445Z,63.06
2018-05-11T09:34:03.305Z,63.48
2018-05-11T09:35:02.242Z,62.58
2018-05-11T09:36:54.648Z,62.19
2018-05-11T09:37:54.089Z,62.19
2018-05-11T09:39:50.323Z,62.38
2018-05-11T09:40:48.618Z,62.48
2018-05-11T09:42:42.073Z,62.51
2018-05-11T09:43:42.555Z,62.23
2018-05-11T09:45:34.693Z,58.45
2018-05-11T09:46:35.852Z,58.73
2018-05-11T09:48:28.725Z,59.79
2018-05-11T09:49:30.429Z,61.07
2018-05-11T09:51:21.529Z,60.08
2018-05-11T09:52:23.761Z,60.75
2018-05-11T09:54:16.064Z,59.60
2018-05-11T09:55:17.142Z,59.69
2018-05-11T09:57:09.456Z,59.22
2018-05-11T09:58:08.496Z,59.22
2018-05-11T10:00:03.992Z,58.45
2018-05-11T10:01:02.008Z,58.54
2018-05-11T10:02:57.059Z,59.34
2018-05-11T10:03:56.783Z,58.37
2018-05-11T10:05:50.553Z,58.47
2018-05-11T10:06:51.534Z,58.37
2018-05-11T10:08:44.670Z,58.28
2018-05-11T10:09:44.773Z,58.28
2018-05-11T10:11:37.503Z,58.37
2018-05-11T10:12:36.977Z,58.15
2018-05-11T10:14:31.015Z,59.31
2018-05-11T10:15:30.428Z,59.41
2018-05-11T10:18:16.496Z,58.15
2018-05-11T10:19:14.637Z,57.77
2018-05-11T10:21:09.194Z,57.87
2018-05-11T10:22:08.416Z,57.29
2018-05-11T10:24:03.229Z,57.39
2018-05-11T10:25:02.328Z,57.51
2018-05-11T10:26:56.092Z,56.84
2018-05-11T10:27:55.520Z,56.65
2018-05-11T10:29:48.819Z,56.26
2018-05-11T10:30:49.665Z,56.67
2018-05-11T10:32:43.310Z,55.52
2018-05-11T10:33:41.488Z,54.56
2018-05-11T10:35:37.194Z,54.85
2018-05-11T10:36:35.093Z,54.75
2018-05-11T10:38:29.172Z,54.46
2018-05-11T10:39:29.074Z,54.27
2018-05-11T10:41:23.778Z,52.73
2018-05-11T10:42:21.322Z,52.06
2018-05-11T10:44:17.276Z,53.50
2018-05-11T10:45:14.931Z,53.31
2018-05-11T10:47:09.082Z,52.25
2018-05-11T10:48:08.158Z,52.44
2018-05-11T10:50:03.618Z,52.54
2018-05-11T10:51:01.640Z,51.67
2018-05-11T10:52:55.837Z,52.25
2018-05-11T10:53:55.154Z,52.37
2018-05-11T10:55:50.641Z,52.27
2018-05-11T10:56:50.025Z,51.89
2018-05-11T10:58:43.026Z,51.48
2018-05-11T10:59:43.415Z,51.50
2018-05-11T11:01:38.718Z,52.08
2018-05-11T11:02:35.452Z,52.27
2018-05-11T11:04:29.263Z,50.63
2018-05-11T11:05:28.120Z,51.12
2018-05-11T11:07:21.973Z,51.12
2018-05-11T11:08:21.371Z,51.12
2018-05-11T11:10:15.681Z,52.34
2018-05-11T11:11:15.256Z,52.18
2018-05-11T11:13:09.050Z,51.41
2018-05-11T11:14:08.174Z,50.73
2018-05-11T11:16:03.004Z,50.63
2018-05-11T11:17:01.890Z,51.02
2018-05-11T11:18:56.382Z,50.73
2018-05-11T11:19:57.071Z,50.35
2018-05-11T11:21:49.383Z,49.87
2018-05-11T11:22:49.027Z,49.89
2018-05-11T11:24:43.813Z,48.35
2018-05-11T11:25:44.502Z,47.67
2018-05-11T11:27:36.063Z,48.28
2018-05-11T11:28:37.736Z,48.18
2018-05-11T11:31:20.595Z,47.12
2018-05-11T11:32:20.550Z,47.12
2018-05-11T11:34:13.366Z,46.45
2018-05-11T11:35:13.339Z,46.64
2018-05-11T11:37:08.065Z,46.73
2018-05-11T11:38:07.264Z,46.93
2018-05-11T11:40:00.901Z,47.03
2018-05-11T11:41:00.531Z,47.12
2018-05-11T11:42:54.501Z,47.67
2018-05-11T11:43:53.727Z,47.39
2018-05-11T11:45:48.342Z,47.19
2018-05-11T11:46:47.532Z,47.70
2018-05-11T11:48:42.142Z,48.76
2018-05-11T11:49:41.397Z,48.66
2018-05-11T11:52:32.070Z,48.28
2018-05-11T11:53:26.971Z,46.93
2018-05-11T11:55:22.073Z,46.35
2018-05-11T11:56:21.099Z,46.45
2018-05-11T11:58:16.415Z,47.70
2018-05-11T11:59:14.960Z,47.03
2018-05-11T12:02:54.623Z,47.12
2018-05-11T12:03:54.614Z,46.93
2018-05-11T12:05:48.119Z,47.22
2018-05-11T12:06:47.689Z,47.31
2018-05-11T12:08:41.635Z,47.00
2018-05-11T12:09:42.636Z,47.99
2018-05-11T12:11:34.466Z,47.99
2018-05-11T12:12:33.584Z,47.51
2018-05-11T12:14:29.299Z,47.22
2018-05-11T12:15:27.463Z,46.35
2018-05-11T12:17:20.795Z,46.25
2018-05-11T12:18:20.386Z,46.45
2018-05-11T12:20:14.237Z,45.68
2018-05-11T12:21:16.874Z,45.87
2018-05-11T12:23:07.570Z,45.29
2018-05-11T12:24:07.503Z,45.77
2018-05-11T12:26:02.427Z,44.06
2018-05-11T12:27:03.928Z,44.15
2018-05-11T12:28:57.247Z,43.77
2018-05-11T12:29:56.029Z,44.06
2018-05-11T12:31:48.904Z,43.96
2018-05-11T12:32:49.360Z,43.87
2018-05-11T12:34:42.305Z,43.10
2018-05-11T12:35:42.285Z,42.71
2018-05-11T12:37:36.635Z,43.00
2018-05-11T12:40:29.106Z,43.29
2018-05-11T12:41:29.565Z,43.02
2018-05-11T12:44:13.652Z,43.02
2018-05-11T12:45:14.034Z,43.02
2018-05-11T12:47:06.962Z,41.78
2018-05-11T12:48:06.633Z,41.88
2018-05-11T12:50:00.266Z,41.20
2018-05-11T12:51:00.303Z,41.19
2018-05-11T12:52:54.288Z,41.19
2018-05-11T12:53:53.754Z,41.77
2018-05-11T12:55:47.728Z,41.96
2018-05-11T12:56:48.182Z,42.25
2018-05-11T12:58:41.122Z,40.70
2018-05-11T12:59:40.708Z,40.70
2018-05-11T13:01:34.467Z,40.32
2018-05-11T13:02:34.032Z,39.84
2018-05-11T13:04:27.828Z,40.42
2018-05-11T13:05:27.757Z,40.42
2018-05-11T13:07:22.173Z,40.42
2018-05-11T13:08:21.224Z,40.82
2018-05-11T13:10:14.676Z,39.76
2018-05-11T13:11:15.091Z,40.15
2018-05-11T13:13:07.996Z,41.40
2018-05-11T13:14:07.982Z,41.40
2018-05-11T13:16:02.297Z,40.63
2018-05-11T13:17:00.960Z,41.02
2018-05-11T13:18:54.925Z,38.99
2018-05-11T13:19:54.736Z,38.99
2018-05-11T13:21:49.445Z,40.34
2018-05-11T13:22:48.147Z,41.20
2018-05-11T13:24:42.026Z,38.79
2018-05-11T13:25:41.536Z,39.01
2018-05-11T13:27:34.958Z,39.11
2018-05-11T13:28:34.572Z,38.91
2018-05-11T13:30:28.425Z,38.81
2018-05-11T13:31:27.934Z,38.62
2018-05-11T13:33:21.745Z,39.59
2018-05-11T13:34:21.639Z,40.26
2018-05-11T13:36:15.572Z,40.34
2018-05-11T13:37:15.163Z,39.87
2018-05-11T13:39:08.415Z,40.55
2018-05-11T13:40:08.429Z,40.55
2018-05-11T13:42:01.898Z,39.29
2018-05-11T13:43:02.253Z,39.11
2018-05-11T13:44:55.152Z,38.93
2018-05-11T13:45:55.242Z,38.25
2018-05-11T13:47:48.534Z,37.67
2018-05-11T13:48:48.547Z,37.30
2018-05-11T13:50:43.545Z,37.12
2018-05-11T13:51:41.920Z,37.67
2018-05-11T13:53:35.368Z,39.03
2018-05-11T13:54:35.417Z,38.64
2018-05-11T13:56:29.032Z,38.14
2018-05-11T13:57:29.364Z,38.71
2018-05-11T13:59:22.179Z,38.43
2018-05-11T14:00:21.941Z,37.85
2018-05-11T14:02:16.704Z,38.33
2018-05-11T14:03:15.574Z,38.81
2018-05-11T14:05:09.473Z,38.91
2018-05-11T14:06:08.564Z,38.81
2018-05-11T14:08:02.789Z,37.75
2018-05-11T14:09:02.313Z,37.37
2018-05-11T14:10:55.810Z,37.85
2018-05-11T14:11:55.736Z,37.95
2018-05-11T14:13:49.152Z,38.71
2018-05-11T14:14:48.839Z,38.81
2018-05-11T14:16:43.100Z,39.29
2018-05-11T14:17:42.650Z,39.11
2018-05-11T14:19:35.942Z,38.81
2018-05-11T14:20:36.436Z,37.95
2018-05-11T14:22:29.334Z,37.29
2018-05-11T14:23:29.038Z,37.58
2018-05-11T14:25:22.793Z,38.53
2018-05-11T14:26:22.524Z,38.83
2018-05-11T14:28:16.731Z,38.81
2018-05-11T14:29:16.139Z,39.11
2018-05-11T14:31:09.424Z,39.61
2018-05-11T14:32:09.159Z,40.09
2018-05-11T14:34:03.395Z,39.32
2018-05-11T14:35:02.516Z,39.20
2018-05-11T14:36:55.971Z,40.47
2018-05-11T14:37:56.471Z,40.28
2018-05-11T14:39:50.272Z,40.19
2018-05-11T14:40:48.978Z,40.19
2018-05-11T14:42:45.135Z,40.30
2018-05-11T14:43:42.775Z,39.62
2018-05-11T14:45:36.195Z,40.30
2018-05-11T14:46:36.698Z,40.50
2018-05-11T14:48:30.535Z,40.67
2018-05-11T14:49:30.965Z,41.05
2018-05-11T14:51:23.010Z,38.93
2018-05-11T14:52:22.650Z,39.22
2018-05-11T14:54:35.150Z,40.28
2018-05-11T14:56:49.605Z,39.29
2018-05-11T14:57:48.394Z,39.41
2018-05-11T14:59:42.469Z,39.29
2018-05-11T15:00:41.606Z,39.11
2018-05-11T15:02:35.477Z,39.01
2018-05-11T15:03:34.960Z,39.61
2018-05-11T15:05:28.768Z,40.38
2018-05-11T15:06:29.327Z,40.57
2018-05-11T15:08:22.858Z,40.19
2018-05-11T15:09:22.529Z,39.80
2018-05-11T15:11:16.250Z,39.70
2018-05-11T15:12:16.289Z,39.61
2018-05-11T15:14:20.875Z,40.78
2018-05-11T15:15:21.270Z,39.61
2018-05-11T15:17:14.558Z,40.57
2018-05-11T15:18:14.630Z,41.75
2018-05-11T15:20:08.314Z,41.17
2018-05-11T15:21:07.946Z,40.86
2018-05-11T15:23:03.401Z,40.19
2018-05-11T15:24:02.362Z,40.67
2018-05-11T15:25:55.865Z,40.28
2018-05-11T15:26:56.436Z,39.99
2018-05-11T15:28:58.404Z,40.09
2018-05-11T15:29:49.158Z,39.22
2018-05-11T15:31:43.197Z,39.80
2018-05-11T15:32:42.691Z,39.80
2018-05-11T15:34:36.607Z,40.28
2018-05-11T15:35:36.306Z,41.13
2018-05-11T15:37:28.919Z,41.33
2018-05-11T15:38:28.898Z,41.13
2018-05-11T15:40:22.584Z,40.84
2018-05-11T15:41:22.545Z,40.55
2018-05-11T15:43:15.301Z,40.36
2018-05-11T15:45:29.343Z,41.52
2018-05-11T15:46:30.415Z,41.20
2018-05-11T15:48:21.826Z,41.11
2018-05-11T15:49:21.788Z,41.20
2018-05-11T15:51:17.241Z,41.88
2018-05-11T15:52:18.129Z,41.78
2018-05-11T15:54:20.229Z,41.88
2018-05-11T15:55:14.091Z,41.60
2018-05-11T15:57:07.629Z,41.78
2018-05-11T15:58:06.252Z,41.11
2018-05-11T16:00:02.120Z,42.27
2018-05-11T16:01:02.118Z,42.18
2018-05-11T16:02:53.357Z,42.18
2018-05-11T16:03:53.403Z,41.40
2018-05-11T16:05:48.075Z,41.11
2018-05-11T16:06:46.924Z,41.60
2018-05-11T16:08:40.771Z,42.18
2018-05-11T16:09:41.651Z,42.27
2018-05-11T16:11:34.065Z,41.81
2018-05-11T16:12:35.704Z,40.94
2018-05-11T16:14:28.413Z,41.61
2018-05-11T16:15:27.115Z,41.33
2018-05-11T16:17:20.952Z,40.55
2018-05-11T16:18:21.419Z,40.45
2018-05-11T16:20:15.765Z,40.94
2018-05-11T16:21:17.423Z,41.13
2018-05-11T16:23:10.197Z,41.42
2018-05-11T16:24:09.291Z,41.13
2018-05-11T16:26:02.606Z,41.91
2018-05-11T16:27:01.599Z,41.98
2018-05-11T16:28:55.393Z,41.91
2018-05-11T16:29:55.821Z,41.98
2018-05-11T16:31:49.930Z,41.69
2018-05-11T16:32:51.820Z,42.08
2018-05-11T16:35:32.706Z,42.75
2018-05-11T16:36:32.699Z,43.04
2018-05-11T16:38:29.209Z,42.18
2018-05-11T16:39:28.250Z,42.36
2018-05-11T16:41:20.503Z,42.36
2018-05-11T16:42:19.052Z,42.36
2018-05-11T16:44:20.399Z,42.85
2018-05-11T16:45:13.579Z,42.75
2018-05-11T16:47:06.398Z,43.43
2018-05-11T16:48:06.975Z,43.24
2018-05-11T16:50:02.168Z,42.66
2018-05-11T16:51:00.821Z,43.33
2018-05-11T16:52:53.768Z,43.62
2018-05-11T16:53:54.929Z,42.75
2018-05-11T16:55:46.734Z,43.43
2018-05-11T16:56:47.236Z,43.04
2018-05-11T16:58:54.522Z,43.52
2018-05-11T16:59:55.014Z,43.43
2018-05-11T17:01:49.379Z,43.24
2018-05-11T17:04:55.950Z,43.98
2018-05-11T17:05:55.939Z,44.08
2018-05-11T17:07:49.401Z,43.21
2018-05-11T17:08:49.077Z,43.02
2018-05-11T17:10:43.427Z,42.93
2018-05-11T17:11:43.831Z,43.02
2018-05-11T17:13:38.200Z,43.60
2018-05-11T17:14:37.644Z,43.38
2018-05-11T17:16:30.083Z,43.19
2018-05-11T17:17:30.048Z,44.25
2018-05-11T17:19:23.468Z,45.31
2018-05-11T17:20:23.919Z,45.89
2018-05-11T17:22:16.834Z,45.03
2018-05-11T17:23:16.774Z,45.51
2018-05-11T17:25:10.210Z,45.60
2018-05-11T17:26:11.186Z,45.70
2018-05-11T17:28:04.654Z,46.37
2018-05-11T17:29:03.583Z,46.37
2018-05-11T17:30:58.118Z,47.12
2018-05-11T17:31:58.447Z,46.83
2018-05-11T17:33:52.639Z,46.95
2018-05-11T17:34:52.453Z,46.93
2018-05-11T17:36:44.905Z,47.41
2018-05-11T17:37:44.290Z,47.80
2018-05-11T17:39:38.294Z,47.31
2018-05-11T17:40:37.701Z,47.03
2018-05-11T17:42:32.210Z,47.89
2018-05-11T17:43:30.662Z,47.39
2018-05-11T17:45:25.014Z,47.10
2018-05-11T17:46:24.034Z,47.00
2018-05-11T17:48:17.915Z,46.52
2018-05-11T17:49:17.837Z,47.00
2018-05-11T17:51:11.727Z,47.10
2018-05-11T17:52:11.236Z,46.91
2018-05-11T17:54:04.619Z,47.39
2018-05-11T17:55:04.563Z,47.77
2018-05-11T17:56:58.029Z,48.64
2018-05-11T17:57:57.994Z,48.71
2018-05-11T18:00:07.151Z,48.33
2018-05-11T18:01:06.010Z,49.29
2018-05-11T18:03:00.915Z,48.90
2018-05-11T18:04:01.123Z,49.29
2018-05-11T18:05:54.333Z,48.90
2018-05-11T18:06:54.296Z,49.00
2018-05-11T18:08:46.030Z,49.48
2018-05-11T18:09:45.576Z,50.45
2018-05-11T18:11:39.371Z,50.06
2018-05-11T18:12:38.927Z,50.73
2018-05-11T18:14:32.327Z,50.35
2018-05-11T18:15:32.027Z,49.96
2018-05-11T18:17:26.347Z,50.25
2018-05-11T18:18:25.735Z,50.71
2018-05-11T18:20:19.149Z,50.61
2018-05-11T18:21:19.114Z,51.29
2018-05-11T18:23:14.121Z,51.09
2018-05-11T18:24:13.496Z,51.19
2018-05-11T18:26:06.730Z,51.48
2018-05-11T18:27:06.871Z,50.90
2018-05-11T18:29:00.845Z,51.48
2018-05-11T18:29:59.696Z,50.81
2018-05-11T18:31:54.507Z,51.96
2018-05-11T18:32:54.416Z,51.57
2018-05-11T18:34:52.404Z,51.29
2018-05-11T18:35:47.701Z,51.57
2018-05-11T18:37:42.949Z,51.67
2018-05-11T18:38:41.515Z,52.34
2018-05-11T18:40:33.802Z,52.54
2018-05-11T18:41:34.315Z,52.34
2018-05-11T18:43:28.273Z,52.70
2018-05-11T18:44:27.128Z,52.73
2018-05-11T18:46:22.041Z,53.09
2018-05-11T18:47:21.011Z,53.38
2018-05-11T18:49:14.721Z,52.80
2018-05-11T18:50:13.578Z,53.57
2018-05-11T18:52:09.123Z,53.47
2018-05-11T18:53:08.113Z,53.19
2018-05-11T18:55:01.399Z,53.35